createdAt,value
2023-02-12T00:03:58.277Z,212362.00
2023-02-12T00:10:00.723Z,212342.00
2023-02-12T00:16:09.985Z,212342.00
2023-02-12T00:22:12.198Z,212348.00
2023-02-12T00:28:14.727Z,212342.00
2023-02-12T00:34:16.904Z,212334.00
2023-02-12T00:40:19.255Z,212356.00
2023-02-12T00:46:21.978Z,212382.00
2023-02-12T00:52:24.686Z,212356.00
2023-02-12T00:58:27.361Z,212376.00
2023-02-12T01:04:29.504Z,212402.00
2023-02-12T01:10:32.013Z,212408.00
2023-02-12T01:16:36.928Z,212428.00
2023-02-12T01:22:39.677Z,212402.00
2023-02-12T01:28:44.189Z,212368.00
2023-02-12T01:34:46.551Z,212317.00
2023-02-12T01:40:49.310Z,212323.00
2023-02-12T01:46:59.980Z,212402.00
2023-02-12T01:53:02.289Z,212472.00
2023-02-12T01:59:04.317Z,212500.00
2023-02-12T02:05:07.757Z,212480.00
2023-02-12T02:11:28.991Z,212506.00
2023-02-12T02:17:47.457Z,212526.00
2023-02-12T02:24:01.556Z,212554.00
2023-02-12T02:30:45.723Z,212546.00
2023-02-12T02:37:00.793Z,212546.00
2023-02-12T02:43:09.925Z,212580.00
2023-02-12T02:49:27.424Z,212607.00
2023-02-12T02:55:37.392Z,212653.00
2023-02-12T03:02:05.893Z,212673.00
2023-02-12T03:08:15.245Z,212717.00
2023-02-12T03:14:26.947Z,212729.00
2023-02-12T03:20:33.837Z,212717.00
2023-02-12T03:26:46.335Z,212673.00
2023-02-12T03:33:09.431Z,212679.00
2023-02-12T03:39:20.683Z,212687.00
2023-02-12T03:45:52.635Z,212665.00
2023-02-12T03:51:55.474Z,212717.00
2023-02-12T03:58:01.957Z,212693.00
2023-02-12T04:04:07.430Z,212717.00
2023-02-12T04:10:10.236Z,212729.00
2023-02-12T04:16:29.518Z,212717.00
2023-02-12T04:23:03.454Z,212723.00
2023-02-12T04:29:18.770Z,212729.00
2023-02-12T04:35:59.830Z,212717.00
2023-02-12T04:42:02.817Z,212639.00
2023-02-12T04:48:06.652Z,212599.00
2023-02-12T04:54:08.822Z,212560.00
2023-02-12T05:00:13.772Z,212554.00
2023-02-12T05:06:15.980Z,212580.00
2023-02-12T05:12:20.725Z,212599.00
2023-02-12T05:18:23.125Z,212665.00
2023-02-12T05:24:26.064Z,212704.00
2023-02-12T05:30:28.533Z,212785.00
2023-02-12T05:36:30.813Z,212856.00
2023-02-12T05:42:33.227Z,212898.00
2023-02-12T05:48:35.695Z,212980.00
2023-02-12T05:54:37.967Z,213070.00
2023-02-12T06:00:40.498Z,213129.00
2023-02-12T06:06:42.990Z,213247.00
2023-02-12T06:12:44.954Z,213361.00
2023-02-12T06:18:47.592Z,213468.00
2023-02-12T06:24:49.950Z,213546.00
2023-02-12T06:30:52.704Z,213693.00
2023-02-12T06:36:55.293Z,213853.00
2023-02-12T06:42:57.776Z,213986.00
2023-02-12T06:49:00.648Z,214134.00
2023-02-12T06:55:02.968Z,214247.00
2023-02-12T07:01:14.105Z,214307.00
2023-02-12T07:07:16.470Z,214434.00
2023-02-12T07:13:18.610Z,214568.00
2023-02-12T07:19:21.185Z,214628.00
2023-02-12T07:25:23.287Z,214709.00
2023-02-12T07:31:26.224Z,214815.00
2023-02-12T07:37:28.834Z,214958.00
2023-02-12T07:43:31.143Z,215037.00
2023-02-12T07:49:33.493Z,215098.00
2023-02-12T07:55:35.888Z,215140.00
2023-02-12T08:01:41.391Z,215194.00
2023-02-12T08:07:43.873Z,215300.00
2023-02-12T08:13:46.458Z,215544.00
2023-02-12T08:19:48.579Z,215814.00
2023-02-12T08:25:50.748Z,215999.00
2023-02-12T08:32:04.152Z,215987.00
2023-02-12T08:38:06.458Z,216026.00
2023-02-12T08:44:09.445Z,212031.00
2023-02-12T08:50:12.005Z,212203.00
2023-02-12T08:56:17.154Z,212337.00
2023-02-12T09:02:19.226Z,212316.00
2023-02-12T09:08:21.545Z,212223.00
2023-02-12T09:14:24.878Z,212122.00
2023-02-12T09:20:27.368Z,212168.00
2023-02-12T09:26:29.627Z,212174.00
2023-02-12T09:32:31.647Z,212201.00
2023-02-12T09:38:34.687Z,212242.00
2023-02-12T09:44:50.912Z,212447.00
2023-02-12T09:50:55.712Z,212588.00
2023-02-12T09:57:02.170Z,212760.00
2023-02-12T10:03:11.788Z,212735.00
2023-02-12T10:09:48.588Z,212680.00
2023-02-12T10:16:05.977Z,212752.00
2023-02-12T10:22:31.170Z,212733.00
2023-02-12T10:28:40.047Z,212638.00
2023-02-12T10:34:43.256Z,212616.00
2023-02-12T10:40:46.161Z,212967.00
2023-02-12T10:46:48.561Z,213292.00
2023-02-12T10:52:56.154Z,213322.00
2023-02-12T10:59:00.511Z,213453.00
2023-02-12T11:05:24.554Z,213575.00
2023-02-12T11:11:31.770Z,213350.00
2023-02-12T11:17:38.773Z,213198.00
2023-02-12T11:23:43.668Z,213103.00
2023-02-12T11:29:49.986Z,212961.00
2023-02-12T11:35:58.068Z,212981.00
2023-02-12T11:42:06.646Z,212975.00
2023-02-12T11:48:22.970Z,212953.00
2023-02-12T11:54:28.845Z,212961.00
2023-02-12T12:00:39.117Z,212939.00
2023-02-12T12:06:52.706Z,213081.00
2023-02-12T12:13:02.989Z,213350.00
2023-02-12T12:19:34.965Z,213872.00
2023-02-12T12:25:45.383Z,214869.00
2023-02-12T12:31:59.789Z,214384.00
2023-02-12T12:38:22.600Z,214438.00
2023-02-12T12:44:49.936Z,214667.00
2023-02-12T12:51:16.297Z,214496.00
2023-02-12T12:57:47.152Z,215008.00
2023-02-12T13:04:11.272Z,214531.00
2023-02-12T13:10:16.167Z,214551.00
2023-02-12T13:16:35.752Z,214681.00
2023-02-12T13:22:58.661Z,214731.00
2023-02-12T13:29:13.605Z,214515.00
2023-02-12T13:35:23.852Z,214011.00
2023-02-12T13:41:27.688Z,213864.00
2023-02-12T13:47:38.959Z,213776.00
2023-02-12T13:53:50.967Z,213589.00
2023-02-12T13:59:54.505Z,213561.00
2023-02-12T14:06:17.485Z,213481.00
2023-02-12T14:12:26.110Z,213308.00
2023-02-12T14:18:32.980Z,213198.00
2023-02-12T14:24:56.196Z,213164.00
2023-02-12T14:31:20.553Z,213025.00
2023-02-12T14:37:37.784Z,212925.00
2023-02-12T14:43:58.982Z,212869.00
2023-02-12T14:50:19.111Z,212760.00
2023-02-12T14:56:23.588Z,212638.00
2023-02-12T15:02:28.600Z,212519.00
2023-02-12T15:08:45.845Z,212399.00
2023-02-12T15:14:55.531Z,212284.00
2023-02-12T15:21:14.397Z,212223.00
2023-02-12T15:27:17.685Z,212148.00
2023-02-12T15:33:27.239Z,212031.00
2023-02-12T15:39:44.232Z,211977.00
2023-02-12T15:45:52.361Z,215979.00
2023-02-12T15:51:55.453Z,215875.00
2023-02-12T15:58:02.118Z,215767.00
2023-02-12T16:04:06.992Z,215702.00
2023-02-12T16:10:18.597Z,215618.00
2023-02-12T16:16:24.535Z,215492.00
2023-02-12T16:22:40.991Z,215429.00
2023-02-12T16:28:48.622Z,215369.00
2023-02-12T16:34:59.682Z,215322.00
2023-02-12T16:41:35.018Z,215263.00
2023-02-12T16:47:37.265Z,215263.00
2023-02-12T16:53:44.141Z,215255.00
2023-02-12T16:59:46.564Z,215194.00
2023-02-12T17:05:49.780Z,215098.00
2023-02-12T17:11:52.133Z,215059.00
2023-02-12T17:17:54.440Z,214992.00
2023-02-12T17:23:57.129Z,214919.00
2023-02-12T17:29:59.484Z,214911.00
2023-02-12T17:36:02.072Z,214823.00
2023-02-12T17:42:05.667Z,214695.00
2023-02-12T17:48:08.129Z,214709.00
2023-02-12T17:54:10.455Z,214642.00
2023-02-12T18:00:13.817Z,214488.00
2023-02-12T18:06:25.660Z,214387.00
2023-02-12T18:12:28.081Z,214293.00
2023-02-12T18:18:30.389Z,214241.00
2023-02-12T18:24:34.755Z,214221.00
2023-02-12T18:30:39.538Z,214187.00
2023-02-12T18:36:41.739Z,214148.00
2023-02-12T18:42:43.927Z,214106.00
2023-02-12T18:48:46.270Z,214100.00
2023-02-12T18:54:48.366Z,214080.00
2023-02-12T19:00:50.557Z,214086.00
2023-02-12T19:06:54.536Z,214066.00
2023-02-12T19:12:57.253Z,214018.00
2023-02-12T19:19:01.572Z,213988.00
2023-02-12T19:25:04.656Z,213954.00
2023-02-12T19:31:15.629Z,213887.00
2023-02-12T19:37:18.102Z,213853.00
2023-02-12T19:43:20.416Z,213853.00
2023-02-12T19:49:24.427Z,213845.00
2023-02-12T19:55:26.579Z,213805.00
2023-02-12T20:01:29.374Z,213779.00
2023-02-12T20:07:31.622Z,213713.00
2023-02-12T20:13:34.370Z,213681.00
2023-02-12T20:19:36.647Z,213627.00
2023-02-12T20:25:45.437Z,213580.00
2023-02-12T20:31:48.270Z,213586.00
2023-02-12T20:37:50.679Z,213532.00
2023-02-12T20:43:53.068Z,213512.00
2023-02-12T20:49:56.175Z,213486.00
2023-02-12T20:56:04.807Z,213448.00
2023-02-12T21:02:08.244Z,213394.00
2023-02-12T21:08:10.723Z,213366.00
2023-02-12T21:14:23.909Z,213347.00
2023-02-12T21:20:26.200Z,213406.00
2023-02-12T21:26:30.396Z,213428.00
2023-02-12T21:32:32.761Z,213448.00
2023-02-12T21:38:35.467Z,213456.00
2023-02-12T21:44:37.968Z,213448.00
2023-02-12T21:50:39.942Z,213486.00
2023-02-12T21:56:43.954Z,213448.00
2023-02-12T22:02:46.250Z,213456.00
2023-02-12T22:08:49.783Z,213420.00
2023-02-12T22:14:52.101Z,213380.00
2023-02-12T22:20:59.909Z,213366.00
2023-02-12T22:27:02.057Z,213327.00
2023-02-12T22:33:04.159Z,213327.00
2023-02-12T22:39:06.888Z,213281.00
2023-02-12T22:45:09.621Z,213287.00
2023-02-12T22:51:15.361Z,213287.00
2023-02-12T22:57:18.052Z,213253.00
2023-02-12T23:03:20.242Z,213247.00
2023-02-12T23:09:22.384Z,213189.00
2023-02-12T23:15:24.627Z,213090.00
2023-02-12T23:21:28.261Z,213129.00
2023-02-12T23:27:30.410Z,213068.00
2023-02-12T23:33:32.571Z,213028.00
2023-02-12T23:39:34.785Z,212932.00
2023-02-12T23:45:37.231Z,212944.00
2023-02-12T23:51:39.779Z,212884.00
2023-02-12T23:57:41.916Z,212932.00
